createdAt,value
2023-08-12T00:00:28.771Z,1007.49
2023-08-12T00:01:28.787Z,1007.49
2023-08-12T00:02:28.777Z,1007.49
2023-08-12T00:03:28.826Z,1007.49
2023-08-12T00:04:28.783Z,1007.49
2023-08-12T00:05:28.755Z,1007.49
2023-08-12T00:06:28.758Z,1007.49
2023-08-12T00:07:28.764Z,1007.49
2023-08-12T00:08:28.846Z,1007.49
2023-08-12T00:09:28.763Z,1007.49
2023-08-12T00:10:28.765Z,1007.49
2023-08-12T00:11:28.758Z,1007.49
2023-08-12T00:12:28.760Z,1007.49
2023-08-12T00:13:30.347Z,1007.49
2023-08-12T00:14:33.955Z,1007.49
2023-08-12T00:15:36.181Z,1007.49
2023-08-12T00:17:28.813Z,1007.89
2023-08-12T00:18:28.761Z,1007.86
2023-08-12T00:19:28.763Z,1007.85
2023-08-12T00:20:28.863Z,1007.84
2023-08-12T00:21:28.854Z,1007.88
2023-08-12T00:22:28.788Z,1007.87
2023-08-12T00:23:28.767Z,1007.87
2023-08-12T00:24:28.771Z,1007.86
2023-08-12T00:25:28.770Z,1007.88
2023-08-12T00:26:28.772Z,1007.91
2023-08-12T00:27:28.810Z,1007.93
2023-08-12T00:28:28.761Z,1007.93
2023-08-12T00:29:28.762Z,1008
2023-08-12T00:30:28.763Z,1008.02
2023-08-12T00:31:28.794Z,1008
2023-08-12T00:32:28.824Z,1008.02
2023-08-12T00:33:28.767Z,1008.04
2023-08-12T00:34:28.777Z,1008.02
2023-08-12T00:35:30.526Z,1008.03
2023-08-12T00:36:33.803Z,1007.99
2023-08-12T00:37:36.474Z,1008.01
2023-08-12T00:39:28.768Z,1007.95
2023-08-12T00:40:28.780Z,1007.93
2023-08-12T00:41:28.761Z,1007.96
2023-08-12T00:42:28.776Z,1007.97
2023-08-12T00:43:28.957Z,1007.91
2023-08-12T00:44:28.764Z,1007.94
2023-08-12T00:45:28.769Z,1007.9
2023-08-12T00:46:28.799Z,1007.93
2023-08-12T00:47:28.815Z,1007.94
2023-08-12T00:48:28.756Z,1007.91
2023-08-12T00:49:29.225Z,1007.91
2023-08-12T00:50:28.762Z,1007.92
2023-08-12T00:51:28.767Z,1007.9
2023-08-12T00:52:28.822Z,1007.9
2023-08-12T00:53:28.763Z,1007.81
2023-08-12T00:54:28.765Z,1007.79
2023-08-12T00:55:28.758Z,1007.78
2023-08-12T00:56:30.623Z,1007.74
2023-08-12T00:57:33.797Z,1007.81
2023-08-12T00:58:36.452Z,1007.83
2023-08-12T01:00:28.770Z,1007.91
2023-08-12T01:01:28.762Z,1007.88
2023-08-12T01:02:28.858Z,1007.88
2023-08-12T01:03:28.807Z,1007.89
2023-08-12T01:04:28.768Z,1007.91
2023-08-12T01:05:28.756Z,1007.91
2023-08-12T01:06:28.763Z,1007.93
2023-08-12T01:07:28.850Z,1007.92
2023-08-12T01:08:28.761Z,1007.91
2023-08-12T01:09:28.767Z,1007.87
2023-08-12T01:10:28.766Z,1007.91
2023-08-12T01:11:28.764Z,1007.86
2023-08-12T01:12:28.766Z,1007.87
2023-08-12T01:13:28.821Z,1007.9
2023-08-12T01:14:28.803Z,1007.87
2023-08-12T01:15:28.919Z,1007.91
2023-08-12T01:16:28.784Z,1007.92
2023-08-12T01:17:30.699Z,1007.94
2023-08-12T01:18:33.890Z,1007.95
2023-08-12T01:19:36.562Z,1007.97
2023-08-12T01:21:28.758Z,1007.99
2023-08-12T01:22:28.769Z,1007.97
2023-08-12T01:23:28.806Z,1007.98
2023-08-12T01:24:28.761Z,1008
2023-08-12T01:25:28.755Z,1007.98
2023-08-12T01:26:28.785Z,1008.01
2023-08-12T01:27:28.761Z,1008
2023-08-12T01:28:28.781Z,1008.01
2023-08-12T01:29:28.758Z,1008.01
2023-08-12T01:30:28.790Z,1008
2023-08-12T01:31:28.828Z,1008.04
2023-08-12T01:32:28.775Z,1008
2023-08-12T01:33:28.897Z,1008.01
2023-08-12T01:34:28.901Z,1007.99
2023-08-12T01:35:28.973Z,1008.01
2023-08-12T01:36:28.869Z,1007.97
2023-08-12T01:37:28.892Z,1007.97
2023-08-12T01:38:30.787Z,1008
2023-08-12T01:39:33.889Z,1007.99
2023-08-12T01:40:36.656Z,1007.99
2023-08-12T01:42:28.768Z,1007.98
2023-08-12T01:43:28.797Z,1007.99
2023-08-12T01:44:28.949Z,1007.93
2023-08-12T01:45:29.048Z,1007.96
2023-08-12T01:46:29.225Z,1007.95
2023-08-12T01:47:28.823Z,1007.97
2023-08-12T01:48:29.022Z,1007.99
2023-08-12T01:49:28.774Z,1008
2023-08-12T01:50:28.785Z,1008
2023-08-12T01:51:28.759Z,1008.03
2023-08-12T01:52:28.767Z,1008
2023-08-12T01:53:28.956Z,1007.98
2023-08-12T01:54:28.895Z,1008
2023-08-12T01:55:28.768Z,1007.99
2023-08-12T01:56:28.967Z,1007.97
2023-08-12T01:57:28.764Z,1007.96
2023-08-12T01:58:28.991Z,1007.96
2023-08-12T01:59:31.449Z,1007.96
2023-08-12T02:00:34.055Z,1007.97
2023-08-12T02:01:36.809Z,1007.94
2023-08-12T02:03:28.880Z,1007.94
2023-08-12T02:04:29.097Z,1007.93
2023-08-12T02:05:28.763Z,1008
2023-08-12T02:06:28.786Z,1008
2023-08-12T02:07:28.845Z,1008.03
2023-08-12T02:08:28.791Z,1008.04
2023-08-12T02:09:28.760Z,1008.06
2023-08-12T02:10:28.770Z,1008.06
2023-08-12T02:11:28.768Z,1008.08
2023-08-12T02:12:28.782Z,1008.08
2023-08-12T02:13:28.771Z,1008.08
2023-08-12T02:14:28.767Z,1008.04
2023-08-12T02:15:28.768Z,1008.1
2023-08-12T02:16:28.853Z,1008.08
2023-08-12T02:17:28.960Z,1008.08
2023-08-12T02:18:28.766Z,1008.1
2023-08-12T02:19:28.787Z,1008.09
2023-08-12T02:20:31.003Z,1008.11
2023-08-12T02:21:33.980Z,1008.1
2023-08-12T02:22:35.051Z,1008.05
2023-08-12T02:24:28.775Z,1008.04
2023-08-12T02:25:28.776Z,1008.05
2023-08-12T02:26:28.762Z,1008.05
2023-08-12T02:27:28.777Z,1008.05
2023-08-12T02:28:28.766Z,1008.01
2023-08-12T02:29:28.764Z,1008.04
2023-08-12T02:30:28.766Z,1008.01
2023-08-12T02:31:28.812Z,1007.99
2023-08-12T02:32:28.796Z,1007.97
2023-08-12T02:33:28.778Z,1007.97
2023-08-12T02:34:28.783Z,1007.93
2023-08-12T02:35:28.759Z,1007.93
2023-08-12T02:36:28.765Z,1007.92
2023-08-12T02:37:28.805Z,1007.87
2023-08-12T02:38:28.775Z,1007.86
2023-08-12T02:39:28.780Z,1007.85
2023-08-12T02:40:28.763Z,1007.84
2023-08-12T02:41:31.024Z,1007.83
2023-08-12T02:42:34.070Z,1007.85
2023-08-12T02:43:35.119Z,1007.9
2023-08-12T02:45:28.835Z,1007.87
2023-08-12T02:46:28.773Z,1007.85
2023-08-12T02:47:28.805Z,1007.84
2023-08-12T02:48:28.776Z,1007.8
2023-08-12T02:49:28.778Z,1007.74
2023-08-12T02:50:28.770Z,1007.71
2023-08-12T02:51:28.785Z,1007.68
2023-08-12T02:52:28.796Z,1007.71
2023-08-12T02:53:28.769Z,1007.68
2023-08-12T02:54:28.768Z,1007.69
2023-08-12T02:55:28.761Z,1007.66
2023-08-12T02:56:28.826Z,1007.69
2023-08-12T02:57:28.799Z,1007.7
2023-08-12T02:58:28.806Z,1007.68
2023-08-12T02:59:28.760Z,1007.71
2023-08-12T03:00:28.788Z,1007.68
2023-08-12T03:01:28.845Z,1007.69
2023-08-12T03:02:31.235Z,1007.61
2023-08-12T03:03:34.170Z,1007.66
2023-08-12T03:04:36.056Z,1007.66
2023-08-12T03:06:28.826Z,1007.66
2023-08-12T03:07:28.781Z,1007.65
2023-08-12T03:08:28.758Z,1007.62
2023-08-12T03:09:28.863Z,1007.6
2023-08-12T03:10:28.777Z,1007.58
2023-08-12T03:11:29.079Z,1007.56
2023-08-12T03:12:28.813Z,1007.57
2023-08-12T03:13:28.761Z,1007.59
2023-08-12T03:14:28.770Z,1007.55
2023-08-12T03:15:28.766Z,1007.57
2023-08-12T03:16:28.764Z,1007.53
2023-08-12T03:17:29.101Z,1007.52
2023-08-12T03:18:28.773Z,1007.52
2023-08-12T03:19:28.776Z,1007.56
2023-08-12T03:20:29.228Z,1007.56
2023-08-12T03:21:28.766Z,1007.57
2023-08-12T03:22:29.133Z,1007.58
2023-08-12T03:23:31.753Z,1007.57
2023-08-12T03:24:34.174Z,1007.56
2023-08-12T03:25:36.173Z,1007.56
2023-08-12T03:27:28.865Z,1007.56
2023-08-12T03:28:28.774Z,1007.57
2023-08-12T03:29:28.794Z,1007.57
2023-08-12T03:30:29.017Z,1007.6
2023-08-12T03:31:28.801Z,1007.56
2023-08-12T03:32:28.794Z,1007.53
2023-08-12T03:33:28.764Z,1007.49
2023-08-12T03:34:28.766Z,1007.45
2023-08-12T03:35:28.766Z,1007.45
2023-08-12T03:36:28.780Z,1007.43
2023-08-12T03:37:28.783Z,1007.4
2023-08-12T03:38:28.765Z,1007.34
2023-08-12T03:39:28.763Z,1007.31
2023-08-12T03:40:28.768Z,1007.28
2023-08-12T03:41:28.774Z,1007.29
2023-08-12T03:42:28.801Z,1007.26
2023-08-12T03:43:28.956Z,1007.26
2023-08-12T03:44:31.756Z,1007.26
2023-08-12T03:45:34.231Z,1007.27
2023-08-12T03:46:36.153Z,1007.27
2023-08-12T03:48:28.855Z,1007.27
2023-08-12T03:49:28.803Z,1007.25
2023-08-12T03:50:29.023Z,1007.27
2023-08-12T03:51:28.905Z,1007.24
2023-08-12T03:52:28.790Z,1007.26
2023-08-12T03:53:28.757Z,1007.23
2023-08-12T03:54:28.773Z,1007.22
2023-08-12T03:55:29.070Z,1007.23
2023-08-12T03:56:28.790Z,1007.17
2023-08-12T03:57:28.783Z,1007.13
2023-08-12T03:58:28.770Z,1007.13
2023-08-12T03:59:28.786Z,1007.09
2023-08-12T04:00:28.766Z,1007.04
2023-08-12T04:01:28.773Z,1007.07
2023-08-12T04:02:28.790Z,1007.05
2023-08-12T04:03:28.809Z,1007.03
2023-08-12T04:04:28.972Z,1007.03
2023-08-12T04:05:31.922Z,1007.03
2023-08-12T04:06:34.381Z,1006.99
2023-08-12T04:07:36.234Z,1007
2023-08-12T04:09:28.800Z,1006.89
2023-08-12T04:10:28.766Z,1006.92
2023-08-12T04:11:28.763Z,1006.85
2023-08-12T04:12:28.784Z,1006.88
2023-08-12T04:13:28.759Z,1006.83
2023-08-12T04:14:28.757Z,1006.83
2023-08-12T04:15:28.811Z,1006.81
2023-08-12T04:16:28.810Z,1006.79
2023-08-12T04:17:29.020Z,1006.77
2023-08-12T04:18:28.759Z,1006.76
2023-08-12T04:19:28.770Z,1006.76
2023-08-12T04:20:28.768Z,1006.72
2023-08-12T04:21:28.764Z,1006.68
2023-08-12T04:22:28.773Z,1006.7
2023-08-12T04:23:29.165Z,1006.72
2023-08-12T04:24:28.767Z,1006.72
2023-08-12T04:25:29.163Z,1006.73
2023-08-12T04:26:32.289Z,1006.68
2023-08-12T04:27:34.474Z,1006.74
2023-08-12T04:28:36.339Z,1006.74
2023-08-12T04:30:28.759Z,1006.7
2023-08-12T04:31:28.794Z,1006.71
2023-08-12T04:32:28.818Z,1006.69
2023-08-12T04:33:29.125Z,1006.72
2023-08-12T04:34:28.759Z,1006.72
2023-08-12T04:35:28.760Z,1006.69
2023-08-12T04:36:28.818Z,1006.68
2023-08-12T04:37:28.829Z,1006.66
2023-08-12T04:38:28.910Z,1006.66
2023-08-12T04:39:28.783Z,1006.61
2023-08-12T04:40:28.975Z,1006.55
2023-08-12T04:41:28.756Z,1006.52
2023-08-12T04:42:28.771Z,1006.5
2023-08-12T04:43:28.830Z,1006.5
2023-08-12T04:44:28.760Z,1006.47
2023-08-12T04:45:28.771Z,1006.49
2023-08-12T04:46:29.244Z,1006.51
2023-08-12T04:47:33.104Z,1006.52
2023-08-12T04:48:34.648Z,1006.49
2023-08-12T04:49:36.411Z,1006.53
2023-08-12T04:51:28.766Z,1006.49
2023-08-12T04:52:28.779Z,1006.48
2023-08-12T04:53:28.761Z,1006.4
2023-08-12T04:54:29.024Z,1006.4
2023-08-12T04:55:28.778Z,1006.4
2023-08-12T04:56:28.766Z,1006.37
2023-08-12T04:57:28.847Z,1006.35
2023-08-12T04:58:28.916Z,1006.34
2023-08-12T04:59:28.782Z,1006.37
2023-08-12T05:00:32.772Z,1006.32
2023-08-12T05:02:29.077Z,1006.29
2023-08-12T05:03:28.815Z,1006.27
2023-08-12T05:04:28.869Z,1006.2
2023-08-12T05:05:28.823Z,1006.26
2023-08-12T05:06:28.945Z,1006.21
2023-08-12T05:07:29.452Z,1006.2
2023-08-12T05:08:32.454Z,1006.13
2023-08-12T05:09:34.813Z,1006.09
2023-08-12T05:10:36.740Z,1006.09
2023-08-12T05:12:28.797Z,1006.05
2023-08-12T05:13:28.776Z,1005.97
2023-08-12T05:14:28.765Z,1006.02
2023-08-12T05:15:28.897Z,1005.98
2023-08-12T05:16:28.769Z,1005.98
2023-08-12T05:17:28.812Z,1005.94
2023-08-12T05:18:28.754Z,1005.95
2023-08-12T05:19:28.769Z,1005.99
2023-08-12T05:20:28.759Z,1006
2023-08-12T05:21:28.757Z,1006
2023-08-12T05:22:28.819Z,1006.01
2023-08-12T05:23:29.175Z,1006
2023-08-12T05:24:28.767Z,1005.98
2023-08-12T05:25:28.804Z,1005.97
2023-08-12T05:26:28.760Z,1005.97
2023-08-12T05:27:28.780Z,1005.96
2023-08-12T05:28:29.136Z,1005.93
2023-08-12T05:29:32.306Z,1005.98
2023-08-12T05:30:35.136Z,1005.97
2023-08-12T05:31:36.990Z,1006.05
2023-08-12T05:33:28.817Z,1006.05
2023-08-12T05:34:28.752Z,1006.02
2023-08-12T05:35:28.966Z,1006.04
2023-08-12T05:36:28.767Z,1006.05
2023-08-12T05:37:28.788Z,1006.01
2023-08-12T05:38:28.771Z,1006
2023-08-12T05:39:28.867Z,1006.01
2023-08-12T05:40:29.071Z,1005.97
2023-08-12T05:41:28.769Z,1006
2023-08-12T05:42:28.775Z,1005.98
2023-08-12T05:43:28.777Z,1005.94
2023-08-12T05:44:28.887Z,1005.89
2023-08-12T05:45:28.766Z,1005.91
2023-08-12T05:46:28.820Z,1005.84
2023-08-12T05:47:28.809Z,1005.8
2023-08-12T05:48:28.957Z,1005.84
2023-08-12T05:49:29.007Z,1005.83
2023-08-12T05:50:32.422Z,1005.81
2023-08-12T05:51:34.781Z,1005.83
2023-08-12T05:52:36.525Z,1005.84
2023-08-12T05:54:29.024Z,1005.79
2023-08-12T05:55:28.777Z,1005.78
2023-08-12T05:56:28.763Z,1005.83
2023-08-12T05:57:31.788Z,1005.8
2023-08-12T05:59:28.767Z,1005.8
2023-08-12T06:00:28.768Z,1005.8
2023-08-12T06:01:28.800Z,1005.79
2023-08-12T06:02:29.062Z,1005.77
2023-08-12T06:03:28.774Z,1005.8
2023-08-12T06:04:28.777Z,1005.81
2023-08-12T06:05:28.775Z,1005.83
2023-08-12T06:06:29.009Z,1005.88
2023-08-12T06:07:28.839Z,1005.81
2023-08-12T06:08:28.773Z,1005.82
2023-08-12T06:09:28.760Z,1005.9
2023-08-12T06:10:29.088Z,1005.88
2023-08-12T06:11:32.537Z,1005.91
2023-08-12T06:12:34.821Z,1005.9
2023-08-12T06:13:36.609Z,1005.87
2023-08-12T06:15:28.776Z,1005.87
2023-08-12T06:16:28.806Z,1005.87
2023-08-12T06:17:28.782Z,1005.87
2023-08-12T06:18:28.760Z,1005.96
2023-08-12T06:19:28.758Z,1005.94
2023-08-12T06:20:28.771Z,1005.99
2023-08-12T06:21:28.770Z,1005.98
2023-08-12T06:22:28.780Z,1005.98
2023-08-12T06:23:31.760Z,1005.98
2023-08-12T06:25:28.764Z,1005.91
2023-08-12T06:26:28.815Z,1005.9
2023-08-12T06:27:29.102Z,1005.86
2023-08-12T06:28:28.759Z,1005.86
2023-08-12T06:29:28.762Z,1005.82
2023-08-12T06:30:28.843Z,1005.82
2023-08-12T06:31:29.138Z,1005.81
2023-08-12T06:32:32.494Z,1005.81
2023-08-12T06:33:34.948Z,1005.82
2023-08-12T06:34:35.496Z,1005.82
2023-08-12T06:35:29.020Z,1005.79
2023-08-12T06:36:28.774Z,1005.79
2023-08-12T06:37:28.766Z,1005.79
2023-08-12T06:38:28.837Z,1005.79
2023-08-12T06:39:28.769Z,1005.75
2023-08-12T06:40:28.774Z,1005.7
2023-08-12T06:41:28.768Z,1005.7
2023-08-12T06:42:28.774Z,1005.7
2023-08-12T06:43:31.780Z,1005.7
2023-08-12T06:45:28.795Z,1005.7
2023-08-12T06:46:28.773Z,1005.7
2023-08-12T06:47:28.902Z,1005.7
2023-08-12T06:48:28.771Z,1005.65
2023-08-12T06:49:28.769Z,1005.62
2023-08-12T06:50:28.756Z,1005.62
2023-08-12T06:51:28.761Z,1005.62
2023-08-12T06:52:29.254Z,1005.62
2023-08-12T06:53:32.551Z,1005.54
2023-08-12T06:54:34.993Z,1005.54
2023-08-12T06:55:35.472Z,1005.54
2023-08-12T06:56:28.769Z,1005.54
2023-08-12T06:57:28.782Z,1005.54
2023-08-12T06:58:28.766Z,1005.54
2023-08-12T06:59:28.781Z,1005.54
2023-08-12T07:00:28.769Z,1005.54
2023-08-12T07:01:28.799Z,1005.49
2023-08-12T07:02:28.812Z,1005.5
2023-08-12T07:03:28.808Z,1005.5
2023-08-12T07:04:28.923Z,1005.52
2023-08-12T07:05:28.778Z,1005.52
2023-08-12T07:06:28.803Z,1005.52
2023-08-12T07:07:28.770Z,1005.55
2023-08-12T07:08:28.823Z,1005.58
2023-08-12T07:09:28.764Z,1005.58
2023-08-12T07:10:32.773Z,1005.59
2023-08-12T07:12:28.770Z,1005.55
2023-08-12T07:13:29.188Z,1005.55
2023-08-12T07:14:32.594Z,1005.58
2023-08-12T07:15:35.132Z,1005.59
2023-08-12T07:16:34.994Z,1005.59
2023-08-12T07:17:28.788Z,1005.57
2023-08-12T07:18:28.788Z,1005.57
2023-08-12T07:19:28.773Z,1005.57
2023-08-12T07:20:28.781Z,1005.57
2023-08-12T07:21:28.791Z,1005.57
2023-08-12T07:22:28.777Z,1005.57
2023-08-12T07:23:28.785Z,1005.57
2023-08-12T07:24:28.784Z,1005.57
2023-08-12T07:25:28.829Z,1005.5
2023-08-12T07:26:28.777Z,1005.5
2023-08-12T07:27:28.779Z,1005.5
2023-08-12T07:28:28.781Z,1005.5
2023-08-12T07:29:28.763Z,1005.49
2023-08-12T07:30:28.772Z,1005.49
2023-08-12T07:31:28.810Z,1005.49
2023-08-12T07:32:28.783Z,1005.54
2023-08-12T07:33:28.785Z,1005.54
2023-08-12T07:34:34.770Z,1005.54
2023-08-12T07:36:33.245Z,1005.59
2023-08-12T07:37:35.811Z,1005.59
2023-08-12T07:38:35.184Z,1005.55
2023-08-12T07:39:28.833Z,1005.55
2023-08-12T07:40:28.928Z,1005.47
2023-08-12T07:41:28.761Z,1005.45
2023-08-12T07:42:28.772Z,1005.4
2023-08-12T07:43:28.798Z,1005.37
2023-08-12T07:44:28.778Z,1005.33
2023-08-12T07:45:28.779Z,1005.28
2023-08-12T07:46:28.805Z,1005.23
2023-08-12T07:47:28.787Z,1005.26
2023-08-12T07:48:28.774Z,1005.2
2023-08-12T07:49:28.762Z,1005.2
2023-08-12T07:50:28.771Z,1005.14
2023-08-12T07:51:28.778Z,1005.14
2023-08-12T07:52:28.781Z,1005.12
2023-08-12T07:53:28.777Z,1005.09
2023-08-12T07:54:28.766Z,1005.09
2023-08-12T07:55:29.975Z,1005.08
2023-08-12T07:56:29.402Z,1005.08
2023-08-12T07:57:33.053Z,1005.09
2023-08-12T07:58:35.948Z,1005.12
2023-08-12T07:59:35.342Z,1005.12
2023-08-12T08:00:28.797Z,1005.12
2023-08-12T08:01:28.831Z,1005.12
2023-08-12T08:02:28.863Z,1005.12
2023-08-12T08:03:28.884Z,1005.18
2023-08-12T08:04:28.857Z,1005.2
2023-08-12T08:05:28.801Z,1005.23
2023-08-12T08:06:28.780Z,1005.23
2023-08-12T08:07:28.775Z,1005.24
2023-08-12T08:08:28.768Z,1005.24
2023-08-12T08:09:28.765Z,1005.15
2023-08-12T08:10:28.771Z,1005.15
2023-08-12T08:11:28.941Z,1005.11
2023-08-12T08:12:28.799Z,1005.09
2023-08-12T08:13:28.763Z,1005.06
2023-08-12T08:14:28.971Z,1004.99
2023-08-12T08:15:28.803Z,1004.98
2023-08-12T08:16:29.833Z,1005.01
2023-08-12T08:17:31.166Z,1005.01
2023-08-12T08:18:33.069Z,1005.01
2023-08-12T08:19:36.046Z,1005.03
2023-08-12T08:20:35.373Z,1005.09
2023-08-12T08:21:28.761Z,1005.09
2023-08-12T08:22:32.531Z,1005.09
2023-08-12T08:23:28.763Z,1005.09
2023-08-12T08:24:28.766Z,1005.09
2023-08-12T08:25:28.836Z,1005.09
2023-08-12T08:26:28.755Z,1005.09
2023-08-12T08:27:28.778Z,1005.24
2023-08-12T08:28:28.837Z,1005.24
2023-08-12T08:29:28.756Z,1005.24
2023-08-12T08:30:28.781Z,1005.24
2023-08-12T08:31:28.964Z,1005.24
2023-08-12T08:32:28.799Z,1005.27
2023-08-12T08:33:28.782Z,1005.27
2023-08-12T08:34:28.759Z,1005.28
2023-08-12T08:35:28.876Z,1005.28
2023-08-12T08:36:28.912Z,1005.28
2023-08-12T08:37:28.779Z,1005.21
2023-08-12T08:38:29.523Z,1005.22
2023-08-12T08:39:33.028Z,1005.23
2023-08-12T08:40:36.154Z,1005.21
2023-08-12T08:41:35.459Z,1005.2
2023-08-12T08:42:28.778Z,1005.18
2023-08-12T08:43:28.758Z,1005.14
2023-08-12T08:44:28.757Z,1005.12
2023-08-12T08:45:28.802Z,1005.06
2023-08-12T08:46:28.867Z,1005
2023-08-12T08:47:28.813Z,1005.04
2023-08-12T08:48:28.783Z,1005.09
2023-08-12T08:49:28.799Z,1005.04
2023-08-12T08:50:28.761Z,1005.03
2023-08-12T08:51:28.765Z,1005.04
2023-08-12T08:52:28.835Z,1005
2023-08-12T08:53:28.785Z,1005.07
2023-08-12T08:54:28.769Z,1005.03
2023-08-12T08:55:28.793Z,1005.02
2023-08-12T08:56:31.790Z,1004.97
2023-08-12T08:57:40.968Z,1004.83
2023-08-12T08:58:31.762Z,1004.73
2023-08-12T09:00:32.744Z,1004.67
2023-08-12T09:01:36.248Z,1004.68
2023-08-12T09:02:35.559Z,1004.67
2023-08-12T09:03:28.763Z,1004.69
2023-08-12T09:04:28.761Z,1004.73
2023-08-12T09:05:28.802Z,1004.75
2023-08-12T09:06:28.759Z,1004.76
2023-08-12T09:07:28.775Z,1004.72
2023-08-12T09:08:28.780Z,1004.74
2023-08-12T09:09:28.770Z,1004.76
2023-08-12T09:10:32.833Z,1004.71
2023-08-12T09:11:28.777Z,1004.66
2023-08-12T09:12:28.824Z,1004.69
2023-08-12T09:13:28.955Z,1004.65
2023-08-12T09:14:28.870Z,1004.63
2023-08-12T09:15:28.808Z,1004.58
2023-08-12T09:16:28.785Z,1004.59
2023-08-12T09:17:28.830Z,1004.57
2023-08-12T09:18:28.782Z,1004.6
2023-08-12T09:19:28.771Z,1004.58
2023-08-12T09:20:29.738Z,1004.65
2023-08-12T09:21:33.214Z,1004.67
2023-08-12T09:22:36.229Z,1004.68
2023-08-12T09:23:35.832Z,1004.72
2023-08-12T09:24:28.760Z,1004.82
2023-08-12T09:25:28.764Z,1004.72
2023-08-12T09:26:28.775Z,1004.8
2023-08-12T09:27:28.798Z,1004.73
2023-08-12T09:28:28.772Z,1004.69
2023-08-12T09:29:28.758Z,1004.72
2023-08-12T09:30:28.791Z,1004.73
2023-08-12T09:31:28.780Z,1004.79
2023-08-12T09:32:28.810Z,1004.75
2023-08-12T09:33:28.763Z,1004.75
2023-08-12T09:34:29.050Z,1004.73
2023-08-12T09:35:28.981Z,1004.71
2023-08-12T09:36:28.766Z,1004.71
2023-08-12T09:37:28.782Z,1004.71
2023-08-12T09:38:28.829Z,1004.69
2023-08-12T09:39:28.763Z,1004.66
2023-08-12T09:40:28.771Z,1004.63
2023-08-12T09:41:29.816Z,1004.6
2023-08-12T09:42:33.391Z,1004.57
2023-08-12T09:43:36.491Z,1004.59
2023-08-12T09:44:35.621Z,1004.67
2023-08-12T09:45:28.779Z,1004.61
2023-08-12T09:46:28.783Z,1004.59
2023-08-12T09:47:28.807Z,1004.58
2023-08-12T09:48:28.761Z,1004.53
2023-08-12T09:49:28.770Z,1004.48
2023-08-12T09:50:28.772Z,1004.44
2023-08-12T09:51:28.772Z,1004.43
2023-08-12T09:52:28.777Z,1004.43
2023-08-12T09:53:28.769Z,1004.4
2023-08-12T09:54:29.801Z,1004.43
2023-08-12T09:55:28.884Z,1004.45
2023-08-12T09:56:28.930Z,1004.52
2023-08-12T09:57:28.768Z,1004.57
2023-08-12T09:58:28.767Z,1004.59
2023-08-12T09:59:28.767Z,1004.6
2023-08-12T10:00:28.762Z,1004.66
2023-08-12T10:01:28.778Z,1004.65
2023-08-12T10:02:29.982Z,1004.62
2023-08-12T10:03:33.358Z,1004.69
2023-08-12T10:04:36.575Z,1004.71
2023-08-12T10:05:35.809Z,1004.66
2023-08-12T10:06:28.761Z,1004.65
2023-08-12T10:07:28.780Z,1004.69
2023-08-12T10:08:28.763Z,1004.69
2023-08-12T10:09:28.775Z,1004.71
2023-08-12T10:10:28.776Z,1004.69
2023-08-12T10:11:28.767Z,1004.69
2023-08-12T10:12:28.788Z,1004.75
2023-08-12T10:13:28.766Z,1004.71
2023-08-12T10:14:28.762Z,1004.7
2023-08-12T10:15:28.776Z,1004.71
2023-08-12T10:16:28.764Z,1004.76
2023-08-12T10:17:43.572Z,1004.77
2023-08-12T10:19:28.757Z,1004.8
2023-08-12T10:20:28.757Z,1004.79
2023-08-12T10:21:28.970Z,1004.86
2023-08-12T10:22:28.763Z,1004.81
2023-08-12T10:23:29.939Z,1004.83
2023-08-12T10:24:33.435Z,1004.82
2023-08-12T10:25:34.872Z,1004.76
2023-08-12T10:27:28.782Z,1004.76
2023-08-12T10:28:28.753Z,1004.78
2023-08-12T10:29:28.763Z,1004.75
2023-08-12T10:30:28.765Z,1004.76
2023-08-12T10:31:28.782Z,1004.74
2023-08-12T10:32:28.769Z,1004.77
2023-08-12T10:33:28.781Z,1004.76
2023-08-12T10:34:28.763Z,1004.7
2023-08-12T10:35:28.759Z,1004.7
2023-08-12T10:36:28.782Z,1004.72
2023-08-12T10:37:28.851Z,1004.7
2023-08-12T10:38:28.764Z,1004.63
2023-08-12T10:39:28.764Z,1004.69
2023-08-12T10:40:28.761Z,1004.65
2023-08-12T10:41:28.763Z,1004.68
2023-08-12T10:42:28.765Z,1004.59
2023-08-12T10:43:28.763Z,1004.61
2023-08-12T10:44:29.995Z,1004.59
2023-08-12T10:45:33.452Z,1004.57
2023-08-12T10:46:34.928Z,1004.55
2023-08-12T10:48:28.801Z,1004.46
2023-08-12T10:49:28.774Z,1004.59
2023-08-12T10:50:28.759Z,1004.57
2023-08-12T10:51:28.772Z,1004.52
2023-08-12T10:52:28.853Z,1004.62
2023-08-12T10:53:28.753Z,1004.64
2023-08-12T10:54:28.983Z,1004.6
2023-08-12T10:55:28.781Z,1004.53
2023-08-12T10:56:28.761Z,1004.5
2023-08-12T10:57:28.759Z,1004.56
2023-08-12T10:58:28.759Z,1004.55
2023-08-12T10:59:28.758Z,1004.56
2023-08-12T11:00:28.763Z,1004.6
2023-08-12T11:01:28.809Z,1004.31
2023-08-12T11:02:28.769Z,1004.51
2023-08-12T11:03:28.776Z,1004.5
2023-08-12T11:04:28.762Z,1004.5
2023-08-12T11:05:30.109Z,1004.52
2023-08-12T11:06:33.061Z,1004.54
2023-08-12T11:07:35.505Z,1004.46
2023-08-12T11:09:28.763Z,1004.46
2023-08-12T11:10:29.567Z,1004.47
2023-08-12T11:11:28.774Z,1004.49
2023-08-12T11:12:28.774Z,1004.56
2023-08-12T11:13:28.987Z,1004.41
2023-08-12T11:14:28.767Z,1004.47
2023-08-12T11:15:28.763Z,1004.43
2023-08-12T11:16:28.891Z,1004.48
2023-08-12T11:17:28.848Z,1004.46
2023-08-12T11:18:28.753Z,1004.42
2023-08-12T11:19:28.762Z,1004.45
2023-08-12T11:20:28.933Z,1004.47
2023-08-12T11:21:28.754Z,1004.42
2023-08-12T11:22:29.107Z,1004.41
2023-08-12T11:23:28.768Z,1004.39
2023-08-12T11:24:28.754Z,1004.38
2023-08-12T11:25:28.772Z,1004.34
2023-08-12T11:26:30.151Z,1004.37
2023-08-12T11:27:33.735Z,1004.36
2023-08-12T11:28:35.918Z,1004.37
2023-08-12T11:30:39.220Z,1004.32
2023-08-12T11:32:28.768Z,1004.38
2023-08-12T11:33:28.783Z,1004.36
2023-08-12T11:34:28.875Z,1004.35
2023-08-12T11:35:28.758Z,1004.39
2023-08-12T11:36:28.762Z,1004.34
2023-08-12T11:37:28.764Z,1004.3
2023-08-12T11:38:28.781Z,1004.32
2023-08-12T11:39:28.779Z,1004.3
2023-08-12T11:40:28.767Z,1004.32
2023-08-12T11:41:28.760Z,1004.27
2023-08-12T11:42:28.764Z,1004.27
2023-08-12T11:43:28.782Z,1004.24
2023-08-12T11:44:28.755Z,1004.22
2023-08-12T11:45:28.792Z,1004.2
2023-08-12T11:46:28.810Z,1004.17
2023-08-12T11:47:30.316Z,1004.12
2023-08-12T11:48:33.841Z,1004.17
2023-08-12T11:49:36.146Z,1004.15
2023-08-12T11:51:28.851Z,1004.07
2023-08-12T11:52:28.768Z,1004.1
2023-08-12T11:53:28.784Z,1004.08
2023-08-12T11:54:31.820Z,1004.09
2023-08-12T11:56:28.764Z,1004.03
2023-08-12T11:57:28.819Z,1004.01
2023-08-12T11:58:47.762Z,1004.05
2023-08-12T12:00:28.788Z,1004.01
2023-08-12T12:01:28.767Z,1003.99
2023-08-12T12:02:28.843Z,1003.98
2023-08-12T12:03:28.802Z,1004.02
2023-08-12T12:04:28.781Z,1003.94
2023-08-12T12:05:28.835Z,1003.94
2023-08-12T12:06:28.778Z,1003.9
2023-08-12T12:07:28.755Z,1003.88
2023-08-12T12:08:30.429Z,1003.91
2023-08-12T12:09:33.510Z,1003.85
2023-08-12T12:10:36.209Z,1003.89
2023-08-12T12:12:28.895Z,1003.93
2023-08-12T12:13:29.072Z,1003.91
2023-08-12T12:14:28.920Z,1003.92
2023-08-12T12:15:28.827Z,1003.9
2023-08-12T12:16:28.903Z,1003.94
2023-08-12T12:17:28.810Z,1003.98
2023-08-12T12:18:29.056Z,1003.91
2023-08-12T12:19:28.820Z,1003.89
2023-08-12T12:20:28.756Z,1003.89
2023-08-12T12:21:28.819Z,1003.9
2023-08-12T12:22:28.773Z,1003.95
2023-08-12T12:23:31.800Z,1003.93
2023-08-12T12:25:28.878Z,1003.88
2023-08-12T12:26:28.750Z,1003.9
2023-08-12T12:27:28.821Z,1003.9
2023-08-12T12:28:28.763Z,1003.87
2023-08-12T12:29:30.546Z,1003.88
2023-08-12T12:30:34.119Z,1003.84
2023-08-12T12:31:36.291Z,1003.86
2023-08-12T12:33:28.778Z,1003.91
2023-08-12T12:34:28.761Z,1003.91
2023-08-12T12:35:28.784Z,1003.92
2023-08-12T12:36:28.833Z,1003.98
2023-08-12T12:37:28.923Z,1003.98
2023-08-12T12:38:28.762Z,1004
2023-08-12T12:39:28.766Z,1004.06
2023-08-12T12:40:28.754Z,1004.05
2023-08-12T12:41:28.762Z,1004.09
2023-08-12T12:42:28.773Z,1004.05
2023-08-12T12:43:28.797Z,1004.05
2023-08-12T12:44:28.764Z,1004.06
2023-08-12T12:45:28.762Z,1004.07
2023-08-12T12:46:28.966Z,1004.1
2023-08-12T12:47:28.830Z,1004.13